createdAt,value
2023-11-14T00:01:43.852Z,3.50
2023-11-14T00:04:12.136Z,2.83
2023-11-14T00:06:40.909Z,3.17
2023-11-14T00:09:10.450Z,3.37
2023-11-14T00:11:38.870Z,3.27
2023-11-14T00:14:07.972Z,3.53
2023-11-14T00:16:36.422Z,2.70
2023-11-14T00:19:06.287Z,3.20
2023-11-14T00:21:34.376Z,3.43
2023-11-14T00:24:02.738Z,2.93
2023-11-14T00:26:30.732Z,3.00
2023-11-14T00:28:59.749Z,2.57
2023-11-14T00:31:28.247Z,2.83
2023-11-14T00:33:56.638Z,3.23
2023-11-14T00:36:26.410Z,2.93
2023-11-14T00:39:00.791Z,2.97
2023-11-14T00:41:30.073Z,3.07
2023-11-14T00:43:58.675Z,2.93
2023-11-14T00:46:27.234Z,2.70
2023-11-14T00:48:55.662Z,3.60
2023-11-14T00:51:24.127Z,2.97
2023-11-14T00:53:53.746Z,3.07
2023-11-14T00:56:22.063Z,3.20
2023-11-14T00:58:50.204Z,3.30
2023-11-14T01:01:20.338Z,2.97
2023-11-14T01:03:49.243Z,2.80
2023-11-14T01:06:18.257Z,3.10
2023-11-14T01:08:46.800Z,3.33
2023-11-14T01:11:16.260Z,3.33
2023-11-14T01:13:45.284Z,3.07
2023-11-14T01:16:14.110Z,3.50
2023-11-14T01:18:42.579Z,3.00
2023-11-14T01:21:16.284Z,3.30
2023-11-14T01:23:44.538Z,3.03
2023-11-14T01:26:12.722Z,3.13
2023-11-14T01:28:43.282Z,3.20
2023-11-14T01:31:21.496Z,2.93
2023-11-14T01:33:50.034Z,3.50
2023-11-14T01:36:18.143Z,3.33
2023-11-14T01:38:46.363Z,3.53
2023-11-14T01:41:14.459Z,3.03
2023-11-14T01:43:48.649Z,3.13
2023-11-14T01:46:19.696Z,3.33
2023-11-14T01:48:50.709Z,3.30
2023-11-14T01:51:20.649Z,2.57
2023-11-14T01:53:50.707Z,3.00
2023-11-14T01:56:19.726Z,2.90
2023-11-14T01:58:52.268Z,2.90
2023-11-14T02:01:22.240Z,3.23
2023-11-14T02:03:50.859Z,2.80
2023-11-14T02:06:19.294Z,3.13
2023-11-14T02:08:49.864Z,2.87
2023-11-14T02:11:18.513Z,2.70
2023-11-14T02:13:47.095Z,3.27
2023-11-14T02:16:16.621Z,2.60
2023-11-14T02:18:44.775Z,2.90
2023-11-14T02:21:14.701Z,2.80
2023-11-14T02:23:47.192Z,3.03
2023-11-14T02:26:16.982Z,3.50
2023-11-14T02:28:45.095Z,2.87
2023-11-14T02:31:13.881Z,2.50
2023-11-14T02:33:42.421Z,2.87
2023-11-14T02:36:10.971Z,2.60
2023-11-14T02:38:39.103Z,3.17
2023-11-14T02:41:08.803Z,3.13
2023-11-14T02:43:38.608Z,3.10
2023-11-14T02:46:06.679Z,3.13
2023-11-14T02:48:35.555Z,2.77
2023-11-14T02:51:03.825Z,3.43
2023-11-14T02:53:31.888Z,2.73
2023-11-14T02:56:01.623Z,3.47
2023-11-14T02:58:29.765Z,3.20
2023-11-14T03:01:00.261Z,2.40
2023-11-14T03:03:29.074Z,3.23
2023-11-14T03:05:57.325Z,2.90
2023-11-14T03:08:25.367Z,2.93
2023-11-14T03:10:53.542Z,3.07
2023-11-14T03:13:22.209Z,3.10
2023-11-14T03:15:50.360Z,3.07
2023-11-14T03:18:20.758Z,3.10
2023-11-14T03:20:49.604Z,3.40
2023-11-14T03:23:17.902Z,2.83
2023-11-14T03:25:46.084Z,3.50
2023-11-14T03:28:14.481Z,3.20
2023-11-14T03:30:42.850Z,3.23
2023-11-14T03:33:11.440Z,3.20
2023-11-14T03:35:41.109Z,3.20
2023-11-14T03:38:09.458Z,2.63
2023-11-14T03:40:38.623Z,2.90
2023-11-14T03:43:07.065Z,2.90
2023-11-14T03:45:35.772Z,3.20
2023-11-14T03:48:05.028Z,2.70
2023-11-14T03:50:33.630Z,3.03
2023-11-14T03:53:03.785Z,3.23
2023-11-14T03:55:32.622Z,2.77
2023-11-14T03:58:00.667Z,2.97
2023-11-14T04:00:28.687Z,2.93
2023-11-14T04:02:57.000Z,2.50
2023-11-14T04:05:25.178Z,2.77
2023-11-14T04:07:54.364Z,2.73
2023-11-14T04:10:24.797Z,2.53
2023-11-14T04:12:53.130Z,2.67
2023-11-14T04:15:21.444Z,2.30
2023-11-14T04:17:49.858Z,2.73
2023-11-14T04:20:18.306Z,3.07
2023-11-14T04:22:50.018Z,2.67
2023-11-14T04:25:18.564Z,2.47
2023-11-14T04:27:48.277Z,2.60
2023-11-14T04:30:16.834Z,2.70
2023-11-14T04:32:45.056Z,2.60
2023-11-14T04:35:13.282Z,2.63
2023-11-14T04:37:41.997Z,2.87
2023-11-14T04:40:11.631Z,2.70
2023-11-14T04:42:39.966Z,2.40
2023-11-14T04:45:10.579Z,2.33
2023-11-14T04:47:39.162Z,3.00
2023-11-14T04:50:12.042Z,2.70
2023-11-14T04:52:43.107Z,2.83
2023-11-14T04:55:12.179Z,2.57
2023-11-14T04:57:40.312Z,2.47
2023-11-14T05:00:12.707Z,3.00
2023-11-14T05:02:40.844Z,2.27
2023-11-14T05:05:09.244Z,2.83
2023-11-14T05:07:38.247Z,2.93
2023-11-14T05:10:07.322Z,2.50
2023-11-14T05:12:35.382Z,2.83
2023-11-14T05:15:04.002Z,2.97
2023-11-14T05:17:33.949Z,2.90
2023-11-14T05:20:02.428Z,2.90
2023-11-14T05:22:31.025Z,3.60
2023-11-14T05:24:59.650Z,2.90
2023-11-14T05:27:27.738Z,3.07
2023-11-14T05:29:56.444Z,2.90
2023-11-14T05:32:24.580Z,2.70
2023-11-14T05:34:54.218Z,2.50
2023-11-14T05:37:22.259Z,3.20
2023-11-14T05:39:52.702Z,2.63
2023-11-14T05:42:20.817Z,3.00
2023-11-14T05:44:50.248Z,3.37
2023-11-14T05:47:19.772Z,2.73
2023-11-14T05:49:48.635Z,2.53
2023-11-14T05:52:18.178Z,3.43
2023-11-14T05:54:47.008Z,3.67
2023-11-14T05:57:18.357Z,2.57
2023-11-14T05:59:50.840Z,3.07
2023-11-14T06:02:22.155Z,2.73
2023-11-14T06:04:51.044Z,2.67
2023-11-14T06:07:20.621Z,3.00
2023-11-14T06:09:49.130Z,2.63
2023-11-14T06:12:17.730Z,3.07
2023-11-14T06:14:46.044Z,2.90
2023-11-14T06:17:14.185Z,3.03
2023-11-14T06:19:42.295Z,2.47
2023-11-14T06:22:10.420Z,2.47
2023-11-14T06:24:40.338Z,3.00
2023-11-14T06:27:08.525Z,2.50
2023-11-14T06:29:36.585Z,2.57
2023-11-14T06:32:04.918Z,2.70
2023-11-14T06:34:33.101Z,2.87
2023-11-14T06:37:01.203Z,2.83
2023-11-14T06:39:29.780Z,1.93
2023-11-14T06:42:00.012Z,2.23
2023-11-14T06:44:28.462Z,2.23
2023-11-14T06:46:56.718Z,2.47
2023-11-14T06:49:24.839Z,2.47
2023-11-14T06:51:52.968Z,2.53
2023-11-14T06:54:21.101Z,2.00
2023-11-14T06:56:49.750Z,1.93
2023-11-14T06:59:19.742Z,2.30
2023-11-14T07:01:51.481Z,2.10
2023-11-14T07:04:21.078Z,2.33
2023-11-14T07:06:49.335Z,2.57
2023-11-14T07:09:22.784Z,1.97
2023-11-14T07:11:51.915Z,2.43
2023-11-14T07:14:22.633Z,2.17
2023-11-14T07:16:52.908Z,2.47
2023-11-14T07:19:23.066Z,2.17
2023-11-14T07:21:52.685Z,1.90
2023-11-14T07:24:20.826Z,2.20
2023-11-14T07:26:51.163Z,2.20
2023-11-14T07:29:22.374Z,1.90
2023-11-14T07:31:52.622Z,2.50
2023-11-14T07:34:20.895Z,2.60
2023-11-14T07:36:49.372Z,2.83
2023-11-14T07:39:18.827Z,2.40
2023-11-14T07:41:46.932Z,2.60
2023-11-14T07:44:15.400Z,2.33
2023-11-14T07:46:45.552Z,1.80
2023-11-14T07:49:15.373Z,2.70
2023-11-14T07:51:43.996Z,2.40
2023-11-14T07:54:12.439Z,2.10
2023-11-14T07:56:42.478Z,2.33
2023-11-14T07:59:11.343Z,2.17
2023-11-14T08:01:40.308Z,2.00
2023-11-14T08:04:11.579Z,1.77
2023-11-14T08:06:41.261Z,2.10
2023-11-14T08:09:09.425Z,2.20
2023-11-14T08:11:39.537Z,2.27
2023-11-14T08:14:09.317Z,1.73
2023-11-14T08:16:40.145Z,2.17
2023-11-14T08:19:08.355Z,1.90
2023-11-14T08:21:36.745Z,2.37
2023-11-14T08:24:06.734Z,1.90
2023-11-14T08:26:34.812Z,1.60
2023-11-14T08:29:03.231Z,1.70
2023-11-14T08:31:31.695Z,2.00
2023-11-14T08:34:00.279Z,1.87
2023-11-14T08:36:28.421Z,1.50
2023-11-14T08:38:56.825Z,1.40
2023-11-14T08:41:26.446Z,1.20
2023-11-14T08:43:55.024Z,1.50
2023-11-14T08:46:23.102Z,1.90
2023-11-14T08:48:51.299Z,1.67
2023-11-14T08:51:19.373Z,1.40
2023-11-14T08:53:47.804Z,1.80
2023-11-14T08:56:16.195Z,1.30
2023-11-14T08:58:45.848Z,1.53
2023-11-14T09:01:15.804Z,1.30
2023-11-14T09:03:45.415Z,1.83
2023-11-14T09:06:13.600Z,1.63
2023-11-14T09:08:41.722Z,1.57
2023-11-14T09:11:09.917Z,1.70
2023-11-14T09:13:38.265Z,1.57
2023-11-14T09:16:10.484Z,1.50
2023-11-14T09:18:40.172Z,1.30
2023-11-14T09:21:08.703Z,1.60
2023-11-14T09:23:37.353Z,1.63
2023-11-14T09:26:08.236Z,1.73
2023-11-14T09:28:37.271Z,1.70
2023-11-14T09:31:07.854Z,1.40
2023-11-14T09:33:36.586Z,1.50
2023-11-14T09:36:05.519Z,1.40
2023-11-14T09:38:33.816Z,1.30
2023-11-14T09:41:03.821Z,1.37
2023-11-14T09:43:32.253Z,1.53
2023-11-14T09:46:00.762Z,1.60
2023-11-14T09:48:30.548Z,1.50
2023-11-14T09:50:59.410Z,1.70
2023-11-14T09:53:28.921Z,1.57
2023-11-14T09:55:58.294Z,1.30
2023-11-14T09:58:26.950Z,1.40
2023-11-14T10:00:55.088Z,1.37
2023-11-14T10:03:23.664Z,1.50
2023-11-14T10:05:53.139Z,1.70
2023-11-14T10:08:21.810Z,1.17
2023-11-14T10:11:07.100Z,1.53
2023-11-14T10:13:37.234Z,1.40
2023-11-14T10:16:20.222Z,1.53
2023-11-14T10:18:50.342Z,1.20
2023-11-14T10:21:33.964Z,1.37
2023-11-14T10:24:03.565Z,1.40
2023-11-14T10:26:31.828Z,1.47
2023-11-14T10:29:03.514Z,1.67
2023-11-14T10:31:36.467Z,1.40
2023-11-14T10:34:07.345Z,1.30
2023-11-14T10:36:50.137Z,1.63
2023-11-14T10:39:19.601Z,1.80
2023-11-14T10:41:47.925Z,1.23
2023-11-14T10:44:16.022Z,1.60
2023-11-14T10:46:51.448Z,1.60
2023-11-14T10:49:20.748Z,1.30
2023-11-14T10:51:51.413Z,1.20
2023-11-14T10:54:20.602Z,1.57
2023-11-14T10:56:55.891Z,1.40
2023-11-14T10:59:28.929Z,1.10
2023-11-14T11:01:57.307Z,1.40
2023-11-14T11:04:25.743Z,1.53
2023-11-14T11:06:55.162Z,1.50
2023-11-14T11:09:24.625Z,1.27
2023-11-14T11:11:56.540Z,1.43
2023-11-14T11:14:25.718Z,1.57
2023-11-14T11:16:54.855Z,1.67
2023-11-14T11:19:30.038Z,1.47
2023-11-14T11:22:11.125Z,1.30
2023-11-14T11:25:18.066Z,1.67
2023-11-14T11:27:46.485Z,1.53
2023-11-14T11:30:15.717Z,1.47
2023-11-14T11:32:43.951Z,1.50
2023-11-14T11:35:32.544Z,1.50
2023-11-14T11:38:09.913Z,1.60
2023-11-14T11:40:58.825Z,1.70
2023-11-14T11:43:28.273Z,1.73
2023-11-14T11:45:56.451Z,2.10
2023-11-14T11:48:28.922Z,1.93
2023-11-14T11:51:17.547Z,1.77
2023-11-14T11:53:47.888Z,1.60
2023-11-14T11:56:40.621Z,1.40
2023-11-14T11:59:08.847Z,1.57
2023-11-14T12:01:48.177Z,1.77
2023-11-14T12:04:18.000Z,1.70
2023-11-14T12:06:47.927Z,1.40
2023-11-14T12:09:18.373Z,1.50
2023-11-14T12:11:46.478Z,1.73
2023-11-14T12:14:14.725Z,1.60
2023-11-14T12:16:43.862Z,1.53
2023-11-14T12:19:11.972Z,1.70
2023-11-14T12:21:40.178Z,1.73
2023-11-14T12:24:09.580Z,1.57
2023-11-14T12:26:39.453Z,2.23
2023-11-14T12:29:09.263Z,1.80
2023-11-14T12:31:37.500Z,1.50
2023-11-14T12:34:09.561Z,2.03
2023-11-14T12:36:38.191Z,1.53
2023-11-14T12:39:14.800Z,1.73
2023-11-14T12:41:46.910Z,1.83
2023-11-14T12:44:17.095Z,1.63
2023-11-14T12:46:47.776Z,1.60
2023-11-14T12:49:18.790Z,1.53
2023-11-14T12:51:49.652Z,1.90
2023-11-14T12:54:19.425Z,1.73
2023-11-14T12:56:49.712Z,1.40
2023-11-14T12:59:20.496Z,1.90
2023-11-14T13:01:51.112Z,1.70
2023-11-14T13:04:20.203Z,1.63
2023-11-14T13:06:53.450Z,1.53
2023-11-14T13:09:21.560Z,1.43
2023-11-14T13:11:51.237Z,1.73
2023-11-14T13:14:19.492Z,1.20
2023-11-14T13:16:48.691Z,1.80
2023-11-14T13:19:17.081Z,1.80
2023-11-14T13:21:45.156Z,1.40
2023-11-14T13:24:13.299Z,1.60
2023-11-14T13:26:41.689Z,1.63
2023-11-14T13:29:11.306Z,1.40
2023-11-14T13:31:39.794Z,1.07
2023-11-14T13:34:08.590Z,1.40
2023-11-14T13:36:37.126Z,1.30
2023-11-14T13:39:07.110Z,1.70
2023-11-14T13:41:46.678Z,1.20
2023-11-14T13:44:19.155Z,1.53
2023-11-14T13:46:47.888Z,1.23
2023-11-14T13:49:20.407Z,1.47
2023-11-14T13:51:49.307Z,1.60
2023-11-14T13:54:20.753Z,1.30
2023-11-14T13:56:50.001Z,1.37
2023-11-14T13:59:20.560Z,1.23
2023-11-14T14:01:48.672Z,1.67
2023-11-14T14:04:16.867Z,1.30
2023-11-14T14:06:44.923Z,1.10
2023-11-14T14:09:14.437Z,1.43
2023-11-14T14:11:42.835Z,1.47
2023-11-14T14:14:12.742Z,1.50
2023-11-14T14:16:43.610Z,1.33
2023-11-14T14:19:12.293Z,1.27
2023-11-14T14:21:41.454Z,1.43
2023-11-14T14:24:11.069Z,1.37
2023-11-14T14:26:39.277Z,1.20
2023-11-14T14:29:07.527Z,1.67
2023-11-14T14:31:37.340Z,1.53
2023-11-14T14:34:09.281Z,1.60
2023-11-14T14:36:38.758Z,1.43
2023-11-14T14:39:09.101Z,1.30
2023-11-14T14:41:37.348Z,1.40
2023-11-14T14:44:07.158Z,1.60
2023-11-14T14:46:35.473Z,1.40
2023-11-14T14:49:04.961Z,1.57
2023-11-14T14:51:34.332Z,1.87
2023-11-14T14:54:04.203Z,1.70
2023-11-14T14:56:32.577Z,1.47
2023-11-14T14:59:01.360Z,1.90
2023-11-14T15:01:29.604Z,1.40
2023-11-14T15:03:58.050Z,1.30
2023-11-14T15:06:27.872Z,1.30
2023-11-14T15:08:57.338Z,1.50
2023-11-14T15:11:25.804Z,1.60
2023-11-14T15:13:53.916Z,1.60
2023-11-14T15:16:22.034Z,1.10
2023-11-14T15:18:50.581Z,1.40
2023-11-14T15:21:18.732Z,1.43
2023-11-14T15:23:46.829Z,1.60
2023-11-14T15:26:16.422Z,1.30
2023-11-14T15:28:44.900Z,1.20
2023-11-14T15:31:14.351Z,1.23
2023-11-14T15:33:44.068Z,1.03
2023-11-14T15:36:16.043Z,1.17
2023-11-14T15:38:44.228Z,1.40
2023-11-14T15:41:12.365Z,1.40
2023-11-14T15:43:42.214Z,1.30
2023-11-14T15:46:11.756Z,1.60
2023-11-14T15:48:40.086Z,1.20
2023-11-14T15:51:08.488Z,1.90
2023-11-14T15:53:36.909Z,1.30
2023-11-14T15:56:05.635Z,1.00
2023-11-14T15:58:36.084Z,1.40
2023-11-14T16:01:05.746Z,1.07
2023-11-14T16:03:35.828Z,1.07
2023-11-14T16:06:04.713Z,1.50
2023-11-14T16:08:35.524Z,1.40
2023-11-14T16:11:04.461Z,1.20
2023-11-14T16:13:33.158Z,1.30
2023-11-14T16:16:06.703Z,2.93
2023-11-14T16:18:37.612Z,0.93
2023-11-14T16:21:06.612Z,0.80
2023-11-14T16:23:34.857Z,1.10
2023-11-14T16:26:03.019Z,0.80
2023-11-14T16:28:31.357Z,1.00
2023-11-14T16:31:01.432Z,1.30
2023-11-14T16:33:29.740Z,0.90
2023-11-14T16:35:59.531Z,1.00
2023-11-14T16:38:26.620Z,1.10
2023-11-14T16:40:54.816Z,0.90
2023-11-14T16:43:22.958Z,0.90
2023-11-14T16:45:50.972Z,0.83
2023-11-14T16:48:19.937Z,0.80
2023-11-14T16:50:48.099Z,0.80
2023-11-14T16:53:17.784Z,0.70
2023-11-14T16:55:46.009Z,0.80
2023-11-14T16:58:14.121Z,0.93
2023-11-14T17:00:43.216Z,0.63
2023-11-14T17:03:11.377Z,1.00
2023-11-14T17:05:41.543Z,0.70
2023-11-14T17:08:10.562Z,1.00
2023-11-14T17:10:45.099Z,0.70
2023-11-14T17:13:14.025Z,0.80
2023-11-14T17:15:42.761Z,0.80
2023-11-14T17:18:11.996Z,0.90
2023-11-14T17:20:40.160Z,1.00
2023-11-14T17:23:08.745Z,1.10
2023-11-14T17:25:36.889Z,0.80
2023-11-14T17:28:06.552Z,0.90
2023-11-14T17:30:34.673Z,1.03
2023-11-14T17:33:03.289Z,1.00
2023-11-14T17:35:32.004Z,1.10
2023-11-14T17:38:00.409Z,1.00
2023-11-14T17:40:29.114Z,1.20
2023-11-14T17:42:57.420Z,1.10
2023-11-14T17:45:27.068Z,1.10
2023-11-14T17:47:55.205Z,1.00
2023-11-14T17:50:23.568Z,1.10
2023-11-14T17:52:52.020Z,1.10
2023-11-14T17:55:20.982Z,1.30
2023-11-14T17:57:49.083Z,1.50
2023-11-14T18:00:17.898Z,1.10
2023-11-14T18:02:47.866Z,1.13
2023-11-14T18:05:16.302Z,1.20
2023-11-14T18:07:44.393Z,1.23
2023-11-14T18:10:12.562Z,1.30
2023-11-14T18:12:40.670Z,1.10
2023-11-14T18:15:09.974Z,1.30
2023-11-14T18:17:38.395Z,1.30
2023-11-14T18:20:11.793Z,1.30
2023-11-14T18:22:38.979Z,1.10
2023-11-14T18:25:07.734Z,1.30
2023-11-14T18:27:35.891Z,1.23
2023-11-14T18:30:05.326Z,1.20
2023-11-14T18:32:35.983Z,1.40
2023-11-14T18:35:10.528Z,1.27
2023-11-14T18:37:38.948Z,1.60
2023-11-14T18:40:08.541Z,1.37
2023-11-14T18:42:37.978Z,1.57
2023-11-14T18:45:08.302Z,1.60
2023-11-14T18:47:37.085Z,1.70
2023-11-14T18:50:06.787Z,1.43
2023-11-14T18:52:37.072Z,1.40
2023-11-14T18:55:06.423Z,1.70
2023-11-14T18:57:34.524Z,1.80
2023-11-14T19:00:02.814Z,1.70
2023-11-14T19:02:31.028Z,1.60
2023-11-14T19:04:59.402Z,1.47
2023-11-14T19:07:28.319Z,1.70
2023-11-14T19:09:58.044Z,1.60
2023-11-14T19:12:26.534Z,1.77
2023-11-14T19:14:55.291Z,1.70
2023-11-14T19:17:24.872Z,1.83
2023-11-14T19:19:53.111Z,2.10
2023-11-14T19:23:03.963Z,1.80
2023-11-14T19:25:13.461Z,1.87
2023-11-14T19:27:41.789Z,1.70
2023-11-14T19:30:13.496Z,1.80
2023-11-14T19:32:43.065Z,1.40
2023-11-14T19:35:11.857Z,1.50
2023-11-14T19:37:39.973Z,1.50
2023-11-14T19:40:11.059Z,1.87
2023-11-14T19:42:40.900Z,1.80
2023-11-14T19:45:10.182Z,1.80
2023-11-14T19:47:38.802Z,1.63
2023-11-14T19:50:07.758Z,2.00
2023-11-14T19:52:36.307Z,1.50
2023-11-14T19:55:04.883Z,1.67
2023-11-14T19:57:33.614Z,1.70
2023-11-14T20:00:14.644Z,1.63
2023-11-14T20:02:45.347Z,2.50
2023-11-14T20:05:14.820Z,2.20
2023-11-14T20:07:43.638Z,1.70
2023-11-14T20:10:13.598Z,1.83
2023-11-14T20:12:44.326Z,1.67
2023-11-14T20:15:17.391Z,1.67
2023-11-14T20:17:46.778Z,1.60
2023-11-14T20:20:15.600Z,1.60
2023-11-14T20:22:44.011Z,1.50
2023-11-14T20:25:12.528Z,1.47
2023-11-14T20:27:41.970Z,1.70
2023-11-14T20:30:10.739Z,1.57
2023-11-14T20:32:40.658Z,1.40
2023-11-14T20:35:10.209Z,1.43
2023-11-14T20:37:38.463Z,1.40
2023-11-14T20:40:08.142Z,1.50
2023-11-14T20:42:36.348Z,1.20
2023-11-14T20:45:04.948Z,1.40
2023-11-14T20:47:34.024Z,1.47
2023-11-14T20:50:03.985Z,1.40
2023-11-14T20:52:35.220Z,1.47
2023-11-14T20:55:04.161Z,1.20
2023-11-14T20:57:32.768Z,1.20
2023-11-14T21:00:00.829Z,1.50
2023-11-14T21:02:30.951Z,1.53
2023-11-14T21:05:00.984Z,1.33
2023-11-14T21:07:30.506Z,1.50
2023-11-14T21:09:58.580Z,1.17
2023-11-14T21:12:27.573Z,1.30
2023-11-14T21:14:55.993Z,1.20
2023-11-14T21:17:25.459Z,1.30
2023-11-14T21:19:54.880Z,1.60
2023-11-14T21:22:23.034Z,1.20
2023-11-14T21:24:52.856Z,2.77
2023-11-14T21:27:24.499Z,1.80
2023-11-14T21:29:55.381Z,2.00
2023-11-14T21:32:31.552Z,1.43
2023-11-14T21:34:59.795Z,1.90
2023-11-14T21:37:28.849Z,3.23
2023-11-14T21:39:58.817Z,1.83
2023-11-14T21:42:27.536Z,1.40
2023-11-14T21:44:55.677Z,1.03
2023-11-14T21:47:23.909Z,1.07
2023-11-14T21:49:52.042Z,1.20
2023-11-14T21:52:20.077Z,1.10
2023-11-14T21:54:48.201Z,1.17
2023-11-14T21:57:17.910Z,1.10
2023-11-14T21:59:46.076Z,1.03
2023-11-14T22:02:14.711Z,1.10
2023-11-14T22:04:43.365Z,1.30
2023-11-14T22:07:19.030Z,1.33
2023-11-14T22:09:47.842Z,1.47
2023-11-14T22:12:17.328Z,1.20
2023-11-14T22:14:45.402Z,1.17
2023-11-14T22:17:16.452Z,1.30
2023-11-14T22:19:45.010Z,1.30
2023-11-14T22:22:14.267Z,1.20
2023-11-14T22:24:42.435Z,1.33
2023-11-14T22:27:10.496Z,1.13
2023-11-14T22:29:40.054Z,1.37
2023-11-14T22:32:08.735Z,1.03
2023-11-14T22:34:37.094Z,1.57
2023-11-14T22:37:07.792Z,1.20
2023-11-14T22:39:38.671Z,1.50
2023-11-14T22:42:07.065Z,1.40
2023-11-14T22:44:35.168Z,1.20
2023-11-14T22:47:04.593Z,1.13
2023-11-14T22:49:32.850Z,1.30
2023-11-14T22:52:00.898Z,1.00
2023-11-14T22:54:29.022Z,1.10
2023-11-14T22:56:57.115Z,1.00
2023-11-14T22:59:25.314Z,1.57
2023-11-14T23:01:53.852Z,1.40
2023-11-14T23:04:25.605Z,1.30
2023-11-14T23:06:55.283Z,1.30
2023-11-14T23:09:24.572Z,1.60
2023-11-14T23:11:53.043Z,1.13
2023-11-14T23:14:22.011Z,1.10
2023-11-14T23:16:51.505Z,1.47
2023-11-14T23:19:20.828Z,1.20
2023-11-14T23:21:55.416Z,1.43
2023-11-14T23:24:26.082Z,1.30
2023-11-14T23:26:54.412Z,1.33
2023-11-14T23:29:22.572Z,1.00
2023-11-14T23:31:50.592Z,1.10
2023-11-14T23:34:18.681Z,1.20
2023-11-14T23:36:46.819Z,1.33
2023-11-14T23:39:17.900Z,1.10
2023-11-14T23:41:46.491Z,1.17
2023-11-14T23:44:15.348Z,1.53
2023-11-14T23:46:43.949Z,1.57
2023-11-14T23:49:12.285Z,0.90
2023-11-14T23:51:41.681Z,1.00
2023-11-14T23:54:10.190Z,1.60
2023-11-14T23:56:40.791Z,1.13
2023-11-14T23:59:08.915Z,1.30
